Terminal Aerodrome Forecast
Issued by NWS

Home | Current Version | Previous Version | Text Only | Print | Product List | Glossary On
Versions: 1 2 3 4 5 6 7 8 9 10 11 12 13 14 15 16 17 18 19
000
FTUS44 KEPZ 312334
TAFDMN
TAF
KDMN 312334Z 0100/0124 05007KT P6SM SCT050 BKN100
     FM010600 02008KT P6SM VCSH FEW025 SCT040 BKN100
      TEMPO 0108/0112 6SM -SHRA BR FEW020 BKN040
     FM011400 07007KT P6SM BKN040 BKN080
     FM011800 09007KT P6SM SCT050 SCT090 BKN130=

USA.gov is the U.S. government's official web portal to all federal, state and local government web resources and services.